sensor_id;sensor_type;location;lat;lon;timestamp;P1;durP1;ratioP1;P2;durP2;ratioP2
8060;SDS011;4073;42.626;25.386;2022-12-29T00:01:16;38.63;;;26.17;;
8060;SDS011;4073;42.626;25.386;2022-12-29T00:03:45;35.97;;;24.80;;
8060;SDS011;4073;42.626;25.386;2022-12-29T00:06:11;27.77;;;19.87;;
8060;SDS011;4073;42.626;25.386;2022-12-29T00:08:36;19.10;;;17.00;;
8060;SDS011;4073;42.626;25.386;2022-12-29T00:11:10;28.30;;;20.10;;
8060;SDS011;4073;42.626;25.386;2022-12-29T00:13:39;30.37;;;20.53;;
8060;SDS011;4073;42.626;25.386;2022-12-29T00:16:24;26.37;;;20.30;;
8060;SDS011;4073;42.626;25.386;2022-12-29T00:18:49;25.00;;;18.50;;
8060;SDS011;4073;42.626;25.386;2022-12-29T00:21:16;26.92;;;19.08;;
8060;SDS011;4073;42.626;25.386;2022-12-29T00:24:01;25.80;;;18.13;;
8060;SDS011;4073;42.626;25.386;2022-12-29T00:29:46;32.20;;;22.10;;
8060;SDS011;4073;42.626;25.386;2022-12-29T00:32:30;26.27;;;17.37;;
8060;SDS011;4073;42.626;25.386;2022-12-29T00:35:18;21.37;;;15.97;;
8060;SDS011;4073;42.626;25.386;2022-12-29T00:37:54;36.20;;;24.07;;
8060;SDS011;4073;42.626;25.386;2022-12-29T00:40:40;31.13;;;20.43;;
8060;SDS011;4073;42.626;25.386;2022-12-29T00:43:24;80.47;;;46.57;;
8060;SDS011;4073;42.626;25.386;2022-12-29T00:46:08;70.30;;;43.17;;
8060;SDS011;4073;42.626;25.386;2022-12-29T00:48:33;21.10;;;17.73;;
8060;SDS011;4073;42.626;25.386;2022-12-29T00:51:17;23.17;;;18.13;;
8060;SDS011;4073;42.626;25.386;2022-12-29T00:53:42;26.57;;;19.10;;
8060;SDS011;4073;42.626;25.386;2022-12-29T00:56:08;29.93;;;19.30;;
8060;SDS011;4073;42.626;25.386;2022-12-29T00:58:33;20.30;;;15.17;;
8060;SDS011;4073;42.626;25.386;2022-12-29T01:01:02;21.03;;;16.00;;
8060;SDS011;4073;42.626;25.386;2022-12-29T01:03:36;18.87;;;15.13;;
8060;SDS011;4073;42.626;25.386;2022-12-29T01:06:03;22.13;;;16.17;;
8060;SDS011;4073;42.626;25.386;2022-12-29T01:08:32;18.80;;;15.83;;
8060;SDS011;4073;42.626;25.386;2022-12-29T01:11:01;18.93;;;14.80;;
8060;SDS011;4073;42.626;25.386;2022-12-29T01:13:32;24.37;;;16.10;;
8060;SDS011;4073;42.626;25.386;2022-12-29T01:15:57;18.85;;;14.18;;
8060;SDS011;4073;42.626;25.386;2022-12-29T01:18:23;27.07;;;19.50;;
8060;SDS011;4073;42.626;25.386;2022-12-29T01:20:50;21.63;;;16.52;;
8060;SDS011;4073;42.626;25.386;2022-12-29T01:23:15;22.57;;;18.67;;
8060;SDS011;4073;42.626;25.386;2022-12-29T01:25:41;31.30;;;23.33;;
8060;SDS011;4073;42.626;25.386;2022-12-29T01:28:06;25.20;;;20.67;;
8060;SDS011;4073;42.626;25.386;2022-12-29T01:30:35;21.53;;;16.87;;
8060;SDS011;4073;42.626;25.386;2022-12-29T01:33:00;23.50;;;16.63;;
8060;SDS011;4073;42.626;25.386;2022-12-29T01:35:26;20.80;;;16.53;;
8060;SDS011;4073;42.626;25.386;2022-12-29T01:37:52;18.97;;;14.83;;
8060;SDS011;4073;42.626;25.386;2022-12-29T01:40:17;22.70;;;15.73;;
8060;SDS011;4073;42.626;25.386;2022-12-29T01:42:42;19.77;;;16.17;;
8060;SDS011;4073;42.626;25.386;2022-12-29T01:45:09;19.83;;;15.27;;
8060;SDS011;4073;42.626;25.386;2022-12-29T01:47:38;19.52;;;16.15;;
8060;SDS011;4073;42.626;25.386;2022-12-29T01:50:21;20.37;;;15.27;;
8060;SDS011;4073;42.626;25.386;2022-12-29T01:53:13;23.53;;;16.30;;
8060;SDS011;4073;42.626;25.386;2022-12-29T01:55:46;19.70;;;15.98;;
8060;SDS011;4073;42.626;25.386;2022-12-29T01:58:18;20.07;;;16.40;;
8060;SDS011;4073;42.626;25.386;2022-12-29T02:00:47;22.87;;;16.50;;
8060;SDS011;4073;42.626;25.386;2022-12-29T02:03:13;17.80;;;15.95;;
8060;SDS011;4073;42.626;25.386;2022-12-29T02:05:53;22.33;;;17.67;;
8060;SDS011;4073;42.626;25.386;2022-12-29T02:08:28;26.73;;;20.17;;
8060;SDS011;4073;42.626;25.386;2022-12-29T02:10:55;20.40;;;16.23;;
8060;SDS011;4073;42.626;25.386;2022-12-29T02:13:23;20.70;;;15.97;;
8060;SDS011;4073;42.626;25.386;2022-12-29T02:32:19;26.63;;;18.77;;
8060;SDS011;4073;42.626;25.386;2022-12-29T02:40:40;21.60;;;17.30;;
8060;SDS011;4073;42.626;25.386;2022-12-29T02:46:12;21.43;;;16.70;;
8060;SDS011;4073;42.626;25.386;2022-12-29T02:48:50;20.67;;;15.55;;
8060;SDS011;4073;42.626;25.386;2022-12-29T02:51:25;19.10;;;15.27;;
8060;SDS011;4073;42.626;25.386;2022-12-29T02:53:57;19.38;;;14.98;;
8060;SDS011;4073;42.626;25.386;2022-12-29T02:56:41;20.77;;;16.33;;
8060;SDS011;4073;42.626;25.386;2022-12-29T02:59:06;20.73;;;16.83;;
8060;SDS011;4073;42.626;25.386;2022-12-29T03:07:42;24.33;;;18.27;;
8060;SDS011;4073;42.626;25.386;2022-12-29T03:24:38;28.10;;;21.17;;
8060;SDS011;4073;42.626;25.386;2022-12-29T03:27:07;24.67;;;20.50;;
8060;SDS011;4073;42.626;25.386;2022-12-29T03:29:39;28.90;;;21.87;;
8060;SDS011;4073;42.626;25.386;2022-12-29T03:32:11;30.03;;;21.93;;
8060;SDS011;4073;42.626;25.386;2022-12-29T03:34:38;28.03;;;22.40;;
8060;SDS011;4073;42.626;25.386;2022-12-29T03:37:06;29.43;;;22.53;;
8060;SDS011;4073;42.626;25.386;2022-12-29T03:39:36;31.93;;;23.03;;
8060;SDS011;4073;42.626;25.386;2022-12-29T03:42:04;27.80;;;21.60;;
8060;SDS011;4073;42.626;25.386;2022-12-29T03:44:41;21.85;;;18.77;;
8060;SDS011;4073;42.626;25.386;2022-12-29T03:47:09;19.80;;;17.40;;
8060;SDS011;4073;42.626;25.386;2022-12-29T03:49:36;24.97;;;17.10;;
8060;SDS011;4073;42.626;25.386;2022-12-29T03:52:02;21.40;;;16.70;;
8060;SDS011;4073;42.626;25.386;2022-12-29T03:54:29;17.87;;;15.27;;
8060;SDS011;4073;42.626;25.386;2022-12-29T03:56:54;17.70;;;15.52;;
8060;SDS011;4073;42.626;25.386;2022-12-29T03:59:20;19.63;;;15.17;;
8060;SDS011;4073;42.626;25.386;2022-12-29T04:01:46;21.55;;;16.30;;
8060;SDS011;4073;42.626;25.386;2022-12-29T04:04:11;17.83;;;15.83;;
8060;SDS011;4073;42.626;25.386;2022-12-29T04:06:37;23.07;;;15.40;;
8060;SDS011;4073;42.626;25.386;2022-12-29T04:09:02;19.93;;;15.90;;
8060;SDS011;4073;42.626;25.386;2022-12-29T04:11:28;22.13;;;16.07;;
8060;SDS011;4073;42.626;25.386;2022-12-29T04:13:53;21.70;;;16.10;;
8060;SDS011;4073;42.626;25.386;2022-12-29T04:16:19;22.83;;;17.37;;
8060;SDS011;4073;42.626;25.386;2022-12-29T04:18:44;22.88;;;17.40;;
8060;SDS011;4073;42.626;25.386;2022-12-29T04:21:10;18.50;;;15.47;;
8060;SDS011;4073;42.626;25.386;2022-12-29T04:23:36;21.03;;;16.23;;
8060;SDS011;4073;42.626;25.386;2022-12-29T04:26:03;20.27;;;15.67;;
8060;SDS011;4073;42.626;25.386;2022-12-29T04:28:30;22.65;;;17.17;;
8060;SDS011;4073;42.626;25.386;2022-12-29T04:30:55;21.00;;;16.70;;
8060;SDS011;4073;42.626;25.386;2022-12-29T04:33:21;29.00;;;23.93;;
8060;SDS011;4073;42.626;25.386;2022-12-29T04:35:47;34.07;;;27.90;;
8060;SDS011;4073;42.626;25.386;2022-12-29T04:38:13;28.87;;;23.00;;
8060;SDS011;4073;42.626;25.386;2022-12-29T04:40:39;24.70;;;18.27;;
8060;SDS011;4073;42.626;25.386;2022-12-29T04:43:06;24.50;;;17.63;;
8060;SDS011;4073;42.626;25.386;2022-12-29T04:45:32;21.97;;;18.10;;
8060;SDS011;4073;42.626;25.386;2022-12-29T04:47:57;21.50;;;16.70;;
8060;SDS011;4073;42.626;25.386;2022-12-29T04:50:23;20.00;;;15.53;;
8060;SDS011;4073;42.626;25.386;2022-12-29T04:52:48;19.75;;;15.63;;
8060;SDS011;4073;42.626;25.386;2022-12-29T04:55:14;26.73;;;17.67;;
8060;SDS011;4073;42.626;25.386;2022-12-29T04:57:39;25.13;;;18.27;;
8060;SDS011;4073;42.626;25.386;2022-12-29T05:00:05;26.33;;;18.40;;
8060;SDS011;4073;42.626;25.386;2022-12-29T05:02:31;21.70;;;15.93;;
8060;SDS011;4073;42.626;25.386;2022-12-29T05:04:57;24.93;;;16.53;;
8060;SDS011;4073;42.626;25.386;2022-12-29T05:07:22;20.50;;;16.30;;
8060;SDS011;4073;42.626;25.386;2022-12-29T05:09:48;21.00;;;15.93;;
8060;SDS011;4073;42.626;25.386;2022-12-29T05:12:13;20.93;;;15.90;;
8060;SDS011;4073;42.626;25.386;2022-12-29T05:14:39;26.30;;;18.30;;
8060;SDS011;4073;42.626;25.386;2022-12-29T05:17:04;20.43;;;17.23;;
8060;SDS011;4073;42.626;25.386;2022-12-29T05:19:30;25.33;;;17.40;;
8060;SDS011;4073;42.626;25.386;2022-12-29T05:21:56;23.80;;;17.70;;
8060;SDS011;4073;42.626;25.386;2022-12-29T05:24:21;20.27;;;16.03;;
8060;SDS011;4073;42.626;25.386;2022-12-29T05:26:47;22.40;;;15.20;;
8060;SDS011;4073;42.626;25.386;2022-12-29T05:29:12;20.00;;;15.33;;
8060;SDS011;4073;42.626;25.386;2022-12-29T05:31:38;21.92;;;16.90;;
8060;SDS011;4073;42.626;25.386;2022-12-29T05:34:03;21.83;;;16.30;;
8060;SDS011;4073;42.626;25.386;2022-12-29T05:36:29;24.90;;;15.60;;
8060;SDS011;4073;42.626;25.386;2022-12-29T05:38:55;22.83;;;15.13;;
8060;SDS011;4073;42.626;25.386;2022-12-29T05:41:21;22.43;;;16.70;;
8060;SDS011;4073;42.626;25.386;2022-12-29T05:43:46;22.43;;;14.83;;
8060;SDS011;4073;42.626;25.386;2022-12-29T05:46:12;21.92;;;15.48;;
8060;SDS011;4073;42.626;25.386;2022-12-29T05:48:37;19.10;;;14.27;;
8060;SDS011;4073;42.626;25.386;2022-12-29T05:51:03;23.13;;;15.20;;
8060;SDS011;4073;42.626;25.386;2022-12-29T05:53:28;21.10;;;14.10;;
8060;SDS011;4073;42.626;25.386;2022-12-29T05:55:53;22.00;;;14.83;;
8060;SDS011;4073;42.626;25.386;2022-12-29T05:58:19;17.80;;;14.33;;
8060;SDS011;4073;42.626;25.386;2022-12-29T06:00:44;20.77;;;14.97;;
8060;SDS011;4073;42.626;25.386;2022-12-29T06:03:10;19.40;;;14.75;;
8060;SDS011;4073;42.626;25.386;2022-12-29T06:05:35;23.83;;;15.20;;
8060;SDS011;4073;42.626;25.386;2022-12-29T06:08:01;38.87;;;24.53;;
8060;SDS011;4073;42.626;25.386;2022-12-29T06:10:26;53.90;;;28.30;;
8060;SDS011;4073;42.626;25.386;2022-12-29T06:12:52;27.10;;;20.00;;
8060;SDS011;4073;42.626;25.386;2022-12-29T06:15:17;40.93;;;28.07;;
8060;SDS011;4073;42.626;25.386;2022-12-29T06:17:43;38.97;;;29.97;;
8060;SDS011;4073;42.626;25.386;2022-12-29T06:20:09;39.23;;;27.97;;
8060;SDS011;4073;42.626;25.386;2022-12-29T06:22:35;40.97;;;29.13;;
8060;SDS011;4073;42.626;25.386;2022-12-29T06:25:01;39.30;;;26.55;;
8060;SDS011;4073;42.626;25.386;2022-12-29T06:27:27;31.03;;;24.80;;
8060;SDS011;4073;42.626;25.386;2022-12-29T06:29:53;26.17;;;22.23;;
8060;SDS011;4073;42.626;25.386;2022-12-29T06:32:19;27.47;;;22.40;;
8060;SDS011;4073;42.626;25.386;2022-12-29T06:34:45;26.38;;;23.05;;
8060;SDS011;4073;42.626;25.386;2022-12-29T06:37:10;25.43;;;19.53;;
8060;SDS011;4073;42.626;25.386;2022-12-29T06:39:36;26.63;;;20.23;;
8060;SDS011;4073;42.626;25.386;2022-12-29T06:42:02;64.57;;;27.90;;
8060;SDS011;4073;42.626;25.386;2022-12-29T06:44:27;23.05;;;19.00;;
8060;SDS011;4073;42.626;25.386;2022-12-29T06:46:53;25.83;;;17.07;;
8060;SDS011;4073;42.626;25.386;2022-12-29T06:49:18;25.33;;;19.60;;
8060;SDS011;4073;42.626;25.386;2022-12-29T06:51:44;19.87;;;16.03;;
8060;SDS011;4073;42.626;25.386;2022-12-29T06:54:10;18.15;;;15.55;;
8060;SDS011;4073;42.626;25.386;2022-12-29T06:56:36;17.53;;;14.73;;
8060;SDS011;4073;42.626;25.386;2022-12-29T06:59:01;19.05;;;14.48;;
8060;SDS011;4073;42.626;25.386;2022-12-29T07:01:28;19.70;;;14.30;;
8060;SDS011;4073;42.626;25.386;2022-12-29T07:03:53;16.60;;;14.37;;
8060;SDS011;4073;42.626;25.386;2022-12-29T07:06:19;18.30;;;16.10;;
8060;SDS011;4073;42.626;25.386;2022-12-29T07:08:45;22.07;;;16.87;;
8060;SDS011;4073;42.626;25.386;2022-12-29T07:11:10;26.10;;;19.97;;
8060;SDS011;4073;42.626;25.386;2022-12-29T07:13:36;21.20;;;15.87;;
8060;SDS011;4073;42.626;25.386;2022-12-29T07:16:05;17.30;;;14.70;;
8060;SDS011;4073;42.626;25.386;2022-12-29T07:18:31;18.48;;;14.95;;
8060;SDS011;4073;42.626;25.386;2022-12-29T07:20:57;17.00;;;14.43;;
8060;SDS011;4073;42.626;25.386;2022-12-29T07:23:22;18.13;;;14.80;;
8060;SDS011;4073;42.626;25.386;2022-12-29T07:25:47;19.00;;;15.37;;
8060;SDS011;4073;42.626;25.386;2022-12-29T07:28:13;16.07;;;14.37;;
8060;SDS011;4073;42.626;25.386;2022-12-29T07:30:38;19.63;;;15.07;;
8060;SDS011;4073;42.626;25.386;2022-12-29T07:33:04;19.87;;;14.77;;
8060;SDS011;4073;42.626;25.386;2022-12-29T07:35:30;15.63;;;14.05;;
8060;SDS011;4073;42.626;25.386;2022-12-29T07:37:55;17.87;;;14.63;;
8060;SDS011;4073;42.626;25.386;2022-12-29T07:40:20;16.83;;;14.47;;
8060;SDS011;4073;42.626;25.386;2022-12-29T07:42:46;15.00;;;12.17;;
8060;SDS011;4073;42.626;25.386;2022-12-29T07:45:11;13.53;;;11.20;;
8060;SDS011;4073;42.626;25.386;2022-12-29T07:47:37;14.10;;;11.00;;
8060;SDS011;4073;42.626;25.386;2022-12-29T07:50:02;10.93;;;9.47;;
8060;SDS011;4073;42.626;25.386;2022-12-29T07:52:28;12.67;;;11.30;;
8060;SDS011;4073;42.626;25.386;2022-12-29T07:54:54;11.73;;;10.50;;
8060;SDS011;4073;42.626;25.386;2022-12-29T07:57:19;22.43;;;16.03;;
8060;SDS011;4073;42.626;25.386;2022-12-29T07:59:45;14.90;;;12.90;;
8060;SDS011;4073;42.626;25.386;2022-12-29T08:02:10;12.20;;;10.97;;
8060;SDS011;4073;42.626;25.386;2022-12-29T08:04:36;15.07;;;13.50;;
8060;SDS011;4073;42.626;25.386;2022-12-29T08:07:02;15.07;;;12.90;;
8060;SDS011;4073;42.626;25.386;2022-12-29T08:09:27;15.00;;;11.80;;
8060;SDS011;4073;42.626;25.386;2022-12-29T08:11:53;10.97;;;9.63;;
8060;SDS011;4073;42.626;25.386;2022-12-29T08:14:19;16.23;;;12.13;;
8060;SDS011;4073;42.626;25.386;2022-12-29T08:16:45;12.20;;;10.90;;
8060;SDS011;4073;42.626;25.386;2022-12-29T08:19:11;12.20;;;11.10;;
8060;SDS011;4073;42.626;25.386;2022-12-29T08:21:36;9.93;;;8.93;;
8060;SDS011;4073;42.626;25.386;2022-12-29T08:24:02;11.93;;;9.50;;
8060;SDS011;4073;42.626;25.386;2022-12-29T08:26:28;10.23;;;9.23;;
8060;SDS011;4073;42.626;25.386;2022-12-29T08:28:54;10.07;;;9.07;;
8060;SDS011;4073;42.626;25.386;2022-12-29T08:31:20;10.30;;;9.27;;
8060;SDS011;4073;42.626;25.386;2022-12-29T08:33:46;10.60;;;9.60;;
8060;SDS011;4073;42.626;25.386;2022-12-29T08:36:12;12.80;;;9.83;;
8060;SDS011;4073;42.626;25.386;2022-12-29T08:38:37;12.23;;;9.67;;
8060;SDS011;4073;42.626;25.386;2022-12-29T08:41:03;12.00;;;10.70;;
8060;SDS011;4073;42.626;25.386;2022-12-29T08:43:29;11.73;;;10.60;;
8060;SDS011;4073;42.626;25.386;2022-12-29T08:45:54;11.87;;;10.53;;
8060;SDS011;4073;42.626;25.386;2022-12-29T08:48:21;14.43;;;12.68;;
8060;SDS011;4073;42.626;25.386;2022-12-29T08:50:47;14.10;;;12.70;;
8060;SDS011;4073;42.626;25.386;2022-12-29T08:53:13;12.90;;;11.70;;
8060;SDS011;4073;42.626;25.386;2022-12-29T08:55:39;13.03;;;11.73;;
8060;SDS011;4073;42.626;25.386;2022-12-29T08:58:05;14.07;;;12.63;;
8060;SDS011;4073;42.626;25.386;2022-12-29T09:00:30;12.93;;;11.67;;
8060;SDS011;4073;42.626;25.386;2022-12-29T09:02:56;13.90;;;11.60;;
8060;SDS011;4073;42.626;25.386;2022-12-29T09:05:21;12.43;;;10.97;;
8060;SDS011;4073;42.626;25.386;2022-12-29T09:07:47;11.50;;;10.40;;
8060;SDS011;4073;42.626;25.386;2022-12-29T09:10:12;15.40;;;12.40;;
8060;SDS011;4073;42.626;25.386;2022-12-29T09:12:38;16.67;;;13.17;;
8060;SDS011;4073;42.626;25.386;2022-12-29T09:15:03;13.53;;;11.73;;
8060;SDS011;4073;42.626;25.386;2022-12-29T09:17:30;12.47;;;11.27;;
8060;SDS011;4073;42.626;25.386;2022-12-29T09:20:11;12.13;;;11.03;;
8060;SDS011;4073;42.626;25.386;2022-12-29T09:22:38;13.53;;;11.30;;
8060;SDS011;4073;42.626;25.386;2022-12-29T09:25:03;10.97;;;9.87;;
8060;SDS011;4073;42.626;25.386;2022-12-29T09:27:29;11.37;;;10.17;;
8060;SDS011;4073;42.626;25.386;2022-12-29T09:29:55;10.73;;;9.73;;
8060;SDS011;4073;42.626;25.386;2022-12-29T09:32:20;11.03;;;10.03;;
8060;SDS011;4073;42.626;25.386;2022-12-29T09:34:46;11.80;;;10.60;;
8060;SDS011;4073;42.626;25.386;2022-12-29T09:37:11;10.97;;;9.87;;
8060;SDS011;4073;42.626;25.386;2022-12-29T09:39:37;10.83;;;9.47;;
8060;SDS011;4073;42.626;25.386;2022-12-29T09:42:12;10.70;;;9.60;;
8060;SDS011;4073;42.626;25.386;2022-12-29T09:47:34;14.60;;;13.07;;
8060;SDS011;4073;42.626;25.386;2022-12-29T09:50:04;10.93;;;9.43;;
8060;SDS011;4073;42.626;25.386;2022-12-29T09:52:50;10.70;;;9.47;;
8060;SDS011;4073;42.626;25.386;2022-12-29T09:55:25;20.23;;;15.40;;
8060;SDS011;4073;42.626;25.386;2022-12-29T09:58:13;15.80;;;13.40;;
8060;SDS011;4073;42.626;25.386;2022-12-29T10:00:57;11.37;;;10.23;;
8060;SDS011;4073;42.626;25.386;2022-12-29T10:06:14;12.03;;;9.60;;
8060;SDS011;4073;42.626;25.386;2022-12-29T10:16:52;18.03;;;11.00;;
8060;SDS011;4073;42.626;25.386;2022-12-29T10:25:16;9.27;;;8.27;;
8060;SDS011;4073;42.626;25.386;2022-12-29T10:27:47;10.33;;;9.20;;
8060;SDS011;4073;42.626;25.386;2022-12-29T10:30:13;11.33;;;10.13;;
8060;SDS011;4073;42.626;25.386;2022-12-29T10:32:44;14.10;;;12.65;;
8060;SDS011;4073;42.626;25.386;2022-12-29T10:35:20;11.33;;;10.13;;
8060;SDS011;4073;42.626;25.386;2022-12-29T10:42:55;10.27;;;9.27;;
8060;SDS011;4073;42.626;25.386;2022-12-29T10:45:24;9.73;;;8.83;;
8060;SDS011;4073;42.626;25.386;2022-12-29T10:47:57;7.93;;;7.13;;
8060;SDS011;4073;42.626;25.386;2022-12-29T10:50:26;8.83;;;7.70;;
8060;SDS011;4073;42.626;25.386;2022-12-29T10:52:54;9.63;;;8.73;;
8060;SDS011;4073;42.626;25.386;2022-12-29T10:55:32;9.23;;;8.43;;
8060;SDS011;4073;42.626;25.386;2022-12-29T10:58:02;12.60;;;8.67;;
8060;SDS011;4073;42.626;25.386;2022-12-29T11:00:30;9.07;;;7.23;;
8060;SDS011;4073;42.626;25.386;2022-12-29T11:05:57;10.27;;;7.90;;
8060;SDS011;4073;42.626;25.386;2022-12-29T11:08:30;7.93;;;7.03;;
8060;SDS011;4073;42.626;25.386;2022-12-29T11:11:04;8.73;;;7.77;;
8060;SDS011;4073;42.626;25.386;2022-12-29T11:13:32;7.40;;;6.63;;
8060;SDS011;4073;42.626;25.386;2022-12-29T11:16:28;9.07;;;7.50;;
8060;SDS011;4073;42.626;25.386;2022-12-29T11:18:59;9.03;;;7.57;;
8060;SDS011;4073;42.626;25.386;2022-12-29T11:21:38;8.17;;;6.90;;
8060;SDS011;4073;42.626;25.386;2022-12-29T11:26:53;8.10;;;7.03;;
8060;SDS011;4073;42.626;25.386;2022-12-29T11:29:27;9.77;;;8.77;;
8060;SDS011;4073;42.626;25.386;2022-12-29T11:32:10;10.27;;;8.10;;
8060;SDS011;4073;42.626;25.386;2022-12-29T11:34:44;8.27;;;7.43;;
8060;SDS011;4073;42.626;25.386;2022-12-29T11:37:20;7.90;;;6.33;;
8060;SDS011;4073;42.626;25.386;2022-12-29T11:42:36;8.10;;;7.20;;
8060;SDS011;4073;42.626;25.386;2022-12-29T11:45:06;8.90;;;7.10;;
8060;SDS011;4073;42.626;25.386;2022-12-29T11:47:47;8.83;;;7.20;;
8060;SDS011;4073;42.626;25.386;2022-12-29T11:50:19;8.27;;;7.00;;
8060;SDS011;4073;42.626;25.386;2022-12-29T11:52:58;10.27;;;7.60;;
8060;SDS011;4073;42.626;25.386;2022-12-29T11:55:27;9.47;;;8.00;;
8060;SDS011;4073;42.626;25.386;2022-12-29T11:57:54;9.60;;;7.97;;
8060;SDS011;4073;42.626;25.386;2022-12-29T12:00:22;10.38;;;9.25;;
8060;SDS011;4073;42.626;25.386;2022-12-29T12:03:05;9.10;;;7.47;;
8060;SDS011;4073;42.626;25.386;2022-12-29T12:05:41;9.33;;;7.73;;
8060;SDS011;4073;42.626;25.386;2022-12-29T12:08:17;11.43;;;8.18;;
8060;SDS011;4073;42.626;25.386;2022-12-29T12:13:36;8.97;;;8.10;;
8060;SDS011;4073;42.626;25.386;2022-12-29T12:16:11;8.02;;;7.15;;
8060;SDS011;4073;42.626;25.386;2022-12-29T12:24:45;11.13;;;8.03;;
8060;SDS011;4073;42.626;25.386;2022-12-29T12:32:48;8.83;;;7.60;;
8060;SDS011;4073;42.626;25.386;2022-12-29T12:57:17;7.80;;;7.10;;
8060;SDS011;4073;42.626;25.386;2022-12-29T12:59:59;11.70;;;7.87;;
8060;SDS011;4073;42.626;25.386;2022-12-29T13:12:45;10.13;;;8.93;;
8060;SDS011;4073;42.626;25.386;2022-12-29T13:23:07;11.43;;;10.23;;
8060;SDS011;4073;42.626;25.386;2022-12-29T13:25:51;9.47;;;8.13;;
8060;SDS011;4073;42.626;25.386;2022-12-29T13:28:33;10.30;;;8.07;;
8060;SDS011;4073;42.626;25.386;2022-12-29T13:31:27;9.23;;;8.33;;
8060;SDS011;4073;42.626;25.386;2022-12-29T13:36:41;14.20;;;10.77;;
8060;SDS011;4073;42.626;25.386;2022-12-29T13:39:18;13.03;;;10.30;;
8060;SDS011;4073;42.626;25.386;2022-12-29T13:41:52;11.50;;;10.10;;
8060;SDS011;4073;42.626;25.386;2022-12-29T13:44:21;12.37;;;9.27;;
8060;SDS011;4073;42.626;25.386;2022-12-29T13:46:48;10.97;;;9.80;;
8060;SDS011;4073;42.626;25.386;2022-12-29T13:49:18;10.00;;;8.63;;
8060;SDS011;4073;42.626;25.386;2022-12-29T13:51:50;12.63;;;8.50;;
8060;SDS011;4073;42.626;25.386;2022-12-29T14:02:04;8.87;;;7.97;;
8060;SDS011;4073;42.626;25.386;2022-12-29T14:04:54;12.13;;;10.30;;
8060;SDS011;4073;42.626;25.386;2022-12-29T14:07:22;10.95;;;9.32;;
8060;SDS011;4073;42.626;25.386;2022-12-29T14:09:50;10.33;;;8.50;;
8060;SDS011;4073;42.626;25.386;2022-12-29T14:12:22;12.57;;;11.17;;
8060;SDS011;4073;42.626;25.386;2022-12-29T14:14:50;11.27;;;9.37;;
8060;SDS011;4073;42.626;25.386;2022-12-29T14:17:18;14.37;;;10.23;;
8060;SDS011;4073;42.626;25.386;2022-12-29T14:19:46;12.23;;;10.57;;
8060;SDS011;4073;42.626;25.386;2022-12-29T14:22:22;13.97;;;10.87;;
8060;SDS011;4073;42.626;25.386;2022-12-29T14:24:49;12.33;;;9.80;;
8060;SDS011;4073;42.626;25.386;2022-12-29T14:32:48;11.83;;;9.60;;
8060;SDS011;4073;42.626;25.386;2022-12-29T14:34:58;13.70;;;10.40;;
8060;SDS011;4073;42.626;25.386;2022-12-29T14:37:28;14.00;;;10.63;;
8060;SDS011;4073;42.626;25.386;2022-12-29T14:42:38;16.30;;;13.33;;
8060;SDS011;4073;42.626;25.386;2022-12-29T14:47:43;27.58;;;23.60;;
8060;SDS011;4073;42.626;25.386;2022-12-29T14:58:32;28.57;;;22.77;;
8060;SDS011;4073;42.626;25.386;2022-12-29T15:01:15;28.50;;;21.50;;
8060;SDS011;4073;42.626;25.386;2022-12-29T15:03:45;21.38;;;18.52;;
8060;SDS011;4073;42.626;25.386;2022-12-29T15:06:15;23.23;;;18.17;;
8060;SDS011;4073;42.626;25.386;2022-12-29T15:11:17;26.03;;;18.63;;
8060;SDS011;4073;42.626;25.386;2022-12-29T15:14:23;22.17;;;19.13;;
8060;SDS011;4073;42.626;25.386;2022-12-29T15:17:26;27.33;;;21.77;;
8060;SDS011;4073;42.626;25.386;2022-12-29T15:19:57;29.23;;;22.87;;
8060;SDS011;4073;42.626;25.386;2022-12-29T15:22:24;25.20;;;19.93;;
8060;SDS011;4073;42.626;25.386;2022-12-29T15:24:51;26.63;;;20.53;;
8060;SDS011;4073;42.626;25.386;2022-12-29T15:27:20;27.67;;;21.30;;
8060;SDS011;4073;42.626;25.386;2022-12-29T15:29:47;29.00;;;22.00;;
8060;SDS011;4073;42.626;25.386;2022-12-29T15:32:23;31.37;;;24.30;;
8060;SDS011;4073;42.626;25.386;2022-12-29T15:34:52;28.40;;;21.47;;
8060;SDS011;4073;42.626;25.386;2022-12-29T15:40:19;30.43;;;21.10;;
8060;SDS011;4073;42.626;25.386;2022-12-29T15:42:54;31.47;;;24.90;;
8060;SDS011;4073;42.626;25.386;2022-12-29T15:45:32;23.60;;;19.70;;
8060;SDS011;4073;42.626;25.386;2022-12-29T15:47:59;26.07;;;21.70;;
8060;SDS011;4073;42.626;25.386;2022-12-29T15:50:29;28.73;;;21.50;;
8060;SDS011;4073;42.626;25.386;2022-12-29T15:52:56;26.67;;;21.50;;
8060;SDS011;4073;42.626;25.386;2022-12-29T15:57:57;26.20;;;20.80;;
8060;SDS011;4073;42.626;25.386;2022-12-29T16:00:26;30.40;;;19.30;;
8060;SDS011;4073;42.626;25.386;2022-12-29T16:03:04;32.20;;;23.07;;
8060;SDS011;4073;42.626;25.386;2022-12-29T16:05:35;88.83;;;48.40;;
8060;SDS011;4073;42.626;25.386;2022-12-29T16:08:02;41.13;;;28.53;;
8060;SDS011;4073;42.626;25.386;2022-12-29T16:10:46;60.97;;;35.43;;
8060;SDS011;4073;42.626;25.386;2022-12-29T16:19:03;43.93;;;28.63;;
8060;SDS011;4073;42.626;25.386;2022-12-29T16:21:39;47.27;;;29.33;;
8060;SDS011;4073;42.626;25.386;2022-12-29T16:24:09;60.13;;;35.23;;
8060;SDS011;4073;42.626;25.386;2022-12-29T16:26:39;75.63;;;46.17;;
8060;SDS011;4073;42.626;25.386;2022-12-29T16:29:12;50.30;;;33.13;;
8060;SDS011;4073;42.626;25.386;2022-12-29T16:34:30;41.60;;;29.47;;
8060;SDS011;4073;42.626;25.386;2022-12-29T16:37:02;41.23;;;29.00;;
8060;SDS011;4073;42.626;25.386;2022-12-29T16:39:30;25.97;;;21.43;;
8060;SDS011;4073;42.626;25.386;2022-12-29T16:50:35;27.83;;;22.87;;
8060;SDS011;4073;42.626;25.386;2022-12-29T16:53:03;34.90;;;26.93;;
8060;SDS011;4073;42.626;25.386;2022-12-29T16:55:30;52.17;;;37.37;;
8060;SDS011;4073;42.626;25.386;2022-12-29T16:57:56;42.77;;;31.50;;
8060;SDS011;4073;42.626;25.386;2022-12-29T17:00:35;30.37;;;22.53;;
8060;SDS011;4073;42.626;25.386;2022-12-29T17:03:01;25.90;;;21.93;;
8060;SDS011;4073;42.626;25.386;2022-12-29T17:05:28;42.80;;;28.50;;
8060;SDS011;4073;42.626;25.386;2022-12-29T17:07:53;39.17;;;28.67;;
8060;SDS011;4073;42.626;25.386;2022-12-29T17:10:19;31.20;;;24.10;;
8060;SDS011;4073;42.626;25.386;2022-12-29T17:12:46;48.80;;;36.93;;
8060;SDS011;4073;42.626;25.386;2022-12-29T17:15:14;40.50;;;29.90;;
8060;SDS011;4073;42.626;25.386;2022-12-29T17:17:46;27.77;;;24.73;;
8060;SDS011;4073;42.626;25.386;2022-12-29T17:20:18;29.30;;;22.73;;
8060;SDS011;4073;42.626;25.386;2022-12-29T17:22:48;25.07;;;19.37;;
8060;SDS011;4073;42.626;25.386;2022-12-29T17:25:19;26.10;;;19.93;;
8060;SDS011;4073;42.626;25.386;2022-12-29T17:28:32;36.23;;;22.97;;
8060;SDS011;4073;42.626;25.386;2022-12-29T17:30:38;27.97;;;21.23;;
8060;SDS011;4073;42.626;25.386;2022-12-29T17:33:05;36.50;;;28.33;;
8060;SDS011;4073;42.626;25.386;2022-12-29T17:35:35;52.90;;;33.70;;
8060;SDS011;4073;42.626;25.386;2022-12-29T17:38:01;78.53;;;46.63;;
8060;SDS011;4073;42.626;25.386;2022-12-29T17:40:27;73.13;;;44.93;;
8060;SDS011;4073;42.626;25.386;2022-12-29T17:42:54;50.27;;;35.03;;
8060;SDS011;4073;42.626;25.386;2022-12-29T17:45:28;64.07;;;44.43;;
8060;SDS011;4073;42.626;25.386;2022-12-29T17:47:55;49.30;;;36.37;;
8060;SDS011;4073;42.626;25.386;2022-12-29T17:50:24;50.00;;;34.37;;
8060;SDS011;4073;42.626;25.386;2022-12-29T17:52:52;53.90;;;36.10;;
8060;SDS011;4073;42.626;25.386;2022-12-29T17:55:20;53.20;;;34.90;;
8060;SDS011;4073;42.626;25.386;2022-12-29T17:57:47;52.03;;;35.07;;
8060;SDS011;4073;42.626;25.386;2022-12-29T18:00:13;50.17;;;32.67;;
8060;SDS011;4073;42.626;25.386;2022-12-29T18:02:41;44.33;;;27.90;;